Time;durP1;ratioP1;P1;durP2;ratioP2;P2;SDS_P1;SDS_P2;PMS_P1;PMS_P2;Temp;Humidity;BMP_temperature;BMP_pressure;BME280_temperature;BME280_humidity;BME280_pressure;Samples;Min_cycle;Max_cycle;Signal;HPM_P1;HPM_P2
2023/12/15 00:00:44;;;;;;;17.17;9.07;;;4.80;99.90;;;;;;4961155;28;20198;-68
2023/12/15 00:03:11;;;;;;;14.03;8.17;;;4.80;99.90;;;;;;4954086;28;20239;-68
2023/12/15 00:05:39;;;;;;;15.87;9.70;;;4.80;99.90;;;;;;4953207;28;20205;-68
2023/12/15 00:08:06;;;;;;;14.13;8.80;;;4.80;99.90;;;;;;4928362;28;20239;-67
2023/12/15 00:10:35;;;;;;;18.80;9.73;;;5.30;99.90;;;;;;4954092;28;20290;-68
2023/12/15 00:13:01;;;;;;;13.03;8.17;;;4.80;99.90;;;;;;4961636;28;20998;-68
2023/12/15 00:15:29;;;;;;;22.37;10.57;;;;;;;;;;4958134;28;20203;-67
2023/12/15 00:17:55;;;;;;;15.83;9.73;;;4.80;99.90;;;;;;4959196;28;20302;-67
2023/12/15 00:20:22;;;;;;;18.00;9.53;;;4.80;99.90;;;;;;4953861;28;20207;-67
2023/12/15 00:22:50;;;;;;;18.43;9.90;;;4.50;99.90;;;;;;4915230;28;20241;-68
2023/12/15 00:25:17;;;;;;;21.33;10.30;;;4.80;99.90;;;;;;4953694;28;20801;-68
2023/12/15 00:27:44;;;;;;;18.13;10.13;;;;;;;;;;4950730;28;20208;-68
2023/12/15 00:30:13;;;;;;;18.73;9.30;;;4.80;99.90;;;;;;4956822;28;20319;-68
2023/12/15 00:32:40;;;;;;;15.73;9.37;;;4.80;99.90;;;;;;4961968;28;20203;-68
2023/12/15 00:35:07;;;;;;;14.47;8.90;;;4.80;99.90;;;;;;4950847;28;20203;-68
2023/12/15 00:37:34;;;;;;;18.30;10.03;;;5.40;99.90;;;;;;4964399;28;20214;-68
2023/12/15 00:40:03;;;;;;;15.93;8.97;;;4.90;99.90;;;;;;4926827;28;20208;-67
2023/12/15 00:42:29;;;;;;;16.00;9.17;;;4.80;99.90;;;;;;4952027;28;20790;-68
2023/12/15 00:44:56;;;;;;;21.23;9.47;;;4.80;99.90;;;;;;4955913;28;20674;-67
2023/12/15 00:47:23;;;;;;;16.30;10.17;;;4.80;99.90;;;;;;4958289;28;20294;-68
2023/12/15 00:49:50;;;;;;;18.23;10.63;;;4.30;99.90;;;;;;4951869;28;20231;-67
2023/12/15 00:52:17;;;;;;;16.63;9.57;;;4.90;99.90;;;;;;4947102;28;20306;-67
2023/12/15 00:54:44;;;;;;;18.00;11.00;;;4.80;99.90;;;;;;4926958;28;20215;-67
2023/12/15 00:57:12;;;;;;;17.87;9.87;;;5.00;99.90;;;;;;4952031;28;20294;-68
2023/12/15 00:59:39;;;;;;;15.80;9.60;;;4.80;99.90;;;;;;4952378;28;20219;-68
2023/12/15 01:02:07;;;;;;;22.13;10.83;;;4.80;99.90;;;;;;4959844;28;20206;-68
2023/12/15 01:04:35;;;;;;;16.83;9.90;;;4.90;99.90;;;;;;4965694;28;20301;-68
2023/12/15 01:07:01;;;;;;;20.13;10.63;;;4.90;99.90;;;;;;4949764;28;20235;-68
2023/12/15 01:09:29;;;;;;;16.27;9.93;;;4.90;99.90;;;;;;4931781;28;20223;-68
2023/12/15 01:11:56;;;;;;;21.23;10.77;;;5.70;99.90;;;;;;4951833;28;20669;-68
2023/12/15 01:14:24;;;;;;;24.80;11.17;;;4.90;99.90;;;;;;4953169;28;20287;-68
2023/12/15 01:16:51;;;;;;;19.53;10.67;;;4.90;99.90;;;;;;4955883;28;20318;-68
2023/12/15 01:19:18;;;;;;;20.97;11.40;;;4.90;99.90;;;;;;4957717;28;20286;-68
2023/12/15 01:21:45;;;;;;;18.33;10.00;;;3.20;99.90;;;;;;4949622;28;20214;-68
2023/12/15 01:24:12;;;;;;;16.73;10.07;;;4.10;99.90;;;;;;4921681;28;20362;-68
2023/12/15 01:26:39;;;;;;;18.57;10.47;;;4.90;99.90;;;;;;4960180;28;20215;-68
2023/12/15 01:29:06;;;;;;;18.63;10.93;;;5.20;99.90;;;;;;4941214;28;20208;-68
2023/12/15 01:31:34;;;;;;;17.00;10.30;;;4.90;99.90;;;;;;4959627;28;20209;-68
2023/12/15 01:34:01;;;;;;;17.53;9.77;;;4.90;99.90;;;;;;4957206;28;20200;-68
2023/12/15 01:36:28;;;;;;;16.97;10.17;;;4.90;99.90;;;;;;4951289;28;20207;-68
2023/12/15 01:38:55;;;;;;;23.07;10.53;;;4.80;99.90;;;;;;4956976;28;20200;-68
2023/12/15 01:41:22;;;;;;;16.40;9.93;;;4.90;99.90;;;;;;4921013;28;20696;-68
2023/12/15 01:43:49;;;;;;;16.20;9.93;;;3.10;99.90;;;;;;4951702;28;20223;-68
2023/12/15 01:46:16;;;;;;;23.57;10.37;;;5.00;99.90;;;;;;4948808;28;21005;-68
2023/12/15 01:48:44;;;;;;;20.17;10.53;;;5.00;99.90;;;;;;4950670;28;20213;-68
2023/12/15 01:51:11;;;;;;;18.67;10.73;;;4.80;99.90;;;;;;4943654;28;20382;-68
2023/12/15 01:53:38;;;;;;;18.30;10.47;;;4.90;99.90;;;;;;4958355;28;20652;-67
2023/12/15 01:56:08;;;;;;;20.03;10.13;;;4.90;99.90;;;;;;4921612;28;20215;-68
2023/12/15 01:58:35;;;;;;;18.97;10.40;;;5.00;99.90;;;;;;4955544;28;20298;-68
2023/12/15 02:01:02;;;;;;;18.90;10.33;;;5.00;99.90;;;;;;4946428;28;20776;-68
2023/12/15 02:03:29;;;;;;;20.10;11.50;;;5.00;99.90;;;;;;4956191;28;20279;-68
2023/12/15 02:05:57;;;;;;;21.43;10.43;;;5.00;99.90;;;;;;4946238;28;20211;-68
2023/12/15 02:08:24;;;;;;;17.50;10.73;;;4.60;99.90;;;;;;4959793;28;20241;-68
2023/12/15 02:10:51;;;;;;;20.83;10.30;;;5.00;99.90;;;;;;4935879;28;20201;-68
2023/12/15 02:13:18;;;;;;;21.37;10.80;;;5.10;99.90;;;;;;4945746;28;20351;-67
2023/12/15 02:15:45;;;;;;;20.07;10.90;;;5.00;99.90;;;;;;4948794;28;20742;-68
2023/12/15 02:18:12;;;;;;;17.57;9.90;;;5.00;99.90;;;;;;4957398;28;20195;-68
2023/12/15 02:20:39;;;;;;;16.20;9.47;;;5.00;99.90;;;;;;4962884;28;20973;-68
2023/12/15 02:23:07;;;;;;;19.90;11.03;;;5.00;99.90;;;;;;4945429;28;20215;-67
2023/12/15 02:25:34;;;;;;;25.90;12.40;;;5.00;99.90;;;;;;4957592;28;20204;-67
2023/12/15 02:28:01;;;;;;;19.63;10.43;;;5.10;99.90;;;;;;4924497;28;20218;-68
2023/12/15 02:30:28;;;;;;;18.53;9.97;;;5.00;99.90;;;;;;4946487;28;20207;-68
2023/12/15 02:32:54;;;;;;;21.33;11.20;;;5.00;99.90;;;;;;4963350;28;20196;-68
2023/12/15 02:35:22;;;;;;;16.03;10.20;;;5.00;99.90;;;;;;4958083;28;20314;-68
2023/12/15 02:37:48;;;;;;;21.40;10.80;;;5.00;99.90;;;;;;4949984;28;20204;-68
2023/12/15 02:40:17;;;;;;;17.30;10.17;;;5.10;99.90;;;;;;4959456;28;20204;-68
2023/12/15 02:42:44;;;;;;;19.97;10.27;;;5.10;99.90;;;;;;4925608;28;20211;-68
2023/12/15 02:45:11;;;;;;;20.47;11.23;;;5.70;99.90;;;;;;4949028;28;20228;-68
2023/12/15 02:47:38;;;;;;;24.23;11.33;;;5.10;99.90;;;;;;4959027;28;20329;-68
2023/12/15 02:50:05;;;;;;;26.27;11.60;;;5.10;99.90;;;;;;4958745;28;20234;-68
2023/12/15 02:52:32;;;;;;;19.80;10.93;;;5.20;99.90;;;;;;4954981;28;20210;-68
2023/12/15 02:54:59;;;;;;;20.30;11.07;;;5.10;99.90;;;;;;4949615;28;20203;-67
2023/12/15 02:57:26;;;;;;;20.77;10.63;;;4.50;99.90;;;;;;4954598;28;20206;-68
2023/12/15 02:59:53;;;;;;;23.40;12.63;;;5.10;99.90;;;;;;4926333;28;20312;-68
2023/12/15 03:02:20;;;;;;;20.77;11.47;;;5.10;99.90;;;;;;4941952;28;20217;-68
2023/12/15 03:04:47;;;;;;;20.20;11.60;;;5.90;99.90;;;;;;4963331;28;20234;-68
2023/12/15 03:07:14;;;;;;;22.40;11.30;;;5.20;99.90;;;;;;4958884;28;20334;-68
2023/12/15 03:09:40;;;;;;;21.47;11.07;;;5.10;99.90;;;;;;4954883;28;20246;-68
2023/12/15 03:12:07;;;;;;;18.43;10.73;;;5.00;99.90;;;;;;4959257;28;20566;-68
2023/12/15 03:14:36;;;;;;;23.77;11.40;;;5.10;99.90;;;;;;4923884;28;20234;-68
2023/12/15 03:17:02;;;;;;;22.63;10.93;;;5.20;99.90;;;;;;4959653;28;20204;-68
2023/12/15 03:19:29;;;;;;;21.00;11.00;;;5.10;99.90;;;;;;4951878;28;20778;-68
2023/12/15 03:21:56;;;;;;;23.97;11.30;;;5.20;99.90;;;;;;4959600;28;20196;-68
2023/12/15 03:24:23;;;;;;;23.70;11.77;;;5.10;99.90;;;;;;4956950;28;20227;-68
2023/12/15 03:26:50;;;;;;;27.17;12.37;;;5.10;99.90;;;;;;4952904;28;20222;-68
2023/12/15 03:29:17;;;;;;;20.67;11.23;;;4.80;99.90;;;;;;4960819;28;20295;-68
2023/12/15 03:31:45;;;;;;;21.30;12.07;;;5.20;99.90;;;;;;4920769;28;20426;-68
2023/12/15 03:34:12;;;;;;;23.10;12.30;;;5.20;99.90;;;;;;4947766;28;20237;-68
2023/12/15 03:36:39;;;;;;;22.90;12.27;;;5.20;99.90;;;;;;4952753;28;20199;-68
2023/12/15 03:39:06;;;;;;;25.03;12.43;;;5.20;99.90;;;;;;4956096;28;20207;-68
2023/12/15 03:41:34;;;;;;;19.60;11.33;;;;;;;;;;4947327;28;20952;-68
2023/12/15 03:44:01;;;;;;;26.63;12.83;;;5.20;99.90;;;;;;4955865;28;20587;-68
2023/12/15 03:46:27;;;;;;;22.00;11.27;;;5.30;99.90;;;;;;4921221;28;20670;-68
2023/12/15 03:48:56;;;;;;;24.97;11.47;;;5.60;99.90;;;;;;4949214;28;20669;-68
2023/12/15 03:51:23;;;;;;;20.93;10.87;;;5.30;99.90;;;;;;4955027;28;20246;-68
2023/12/15 03:53:50;;;;;;;18.47;11.77;;;5.30;99.90;;;;;;4957208;28;20204;-68
2023/12/15 03:56:24;;;;;;;21.03;11.27;;;5.40;99.90;;;;;;4947346;28;20291;-68
2023/12/15 03:58:51;;;;;;;21.53;11.77;;;5.30;99.90;;;;;;4958864;28;20203;-68
2023/12/15 04:01:18;;;;;;;24.93;11.53;;;5.30;99.90;;;;;;4956914;28;20374;-68
2023/12/15 04:03:45;;;;;;;23.03;11.43;;;5.30;99.90;;;;;;4921165;28;21125;-69
2023/12/15 04:06:13;;;;;;;19.87;11.43;;;5.30;99.90;;;;;;4947904;28;20203;-70
2023/12/15 04:08:42;;;;;;;23.70;11.57;;;5.90;99.90;;;;;;4948762;28;20842;-69
2023/12/15 04:11:09;;;;;;;19.23;11.30;;;5.30;99.90;;;;;;4950282;28;20207;-68
2023/12/15 04:13:36;;;;;;;18.90;11.73;;;;;;;;;;4952144;28;20310;-67
2023/12/15 04:16:05;;;;;;;22.77;12.37;;;5.90;99.90;;;;;;4957160;28;20225;-67
2023/12/15 04:18:33;;;;;;;21.13;11.90;;;5.30;99.90;;;;;;4921235;28;20796;-67
2023/12/15 04:21:00;;;;;;;21.13;11.53;;;5.40;99.90;;;;;;4953642;28;20207;-67
2023/12/15 04:23:28;;;;;;;23.27;11.33;;;5.40;99.90;;;;;;4956356;28;20210;-67
2023/12/15 04:25:58;;;;;;;20.93;12.00;;;5.40;99.90;;;;;;4955215;28;20262;-67
2023/12/15 04:28:25;;;;;;;21.37;11.43;;;5.40;99.90;;;;;;4945320;28;20203;-67
2023/12/15 04:31:15;;;;;;;26.37;11.70;;;6.60;99.90;;;;;;4952120;28;20973;-67
2023/12/15 04:33:42;;;;;;;21.73;11.33;;;5.60;99.90;;;;;;4920497;28;20212;-67
2023/12/15 04:36:10;;;;;;;19.30;10.60;;;5.40;99.90;;;;;;4949651;28;20676;-67
2023/12/15 04:38:38;;;;;;;25.03;12.93;;;5.50;99.90;;;;;;4959571;28;20691;-68
2023/12/15 04:41:06;;;;;;;23.37;12.00;;;5.50;99.90;;;;;;4959307;28;20205;-68
2023/12/15 04:43:32;;;;;;;24.50;11.87;;;5.50;99.90;;;;;;4948764;28;20207;-67
2023/12/15 04:45:59;;;;;;;28.80;13.17;;;5.50;99.90;;;;;;4956048;28;20807;-68
2023/12/15 04:48:26;;;;;;;27.37;12.33;;;5.70;99.90;;;;;;4946921;28;20659;-68
2023/12/15 04:50:53;;;;;;;26.43;13.50;;;5.50;99.90;;;;;;4946653;28;20223;-68
2023/12/15 04:53:20;;;;;;;31.30;13.33;;;5.60;99.90;;;;;;4934005;28;20227;-67
2023/12/15 04:55:48;;;;;;;27.97;12.40;;;5.50;99.90;;;;;;4950862;28;20365;-67
2023/12/15 04:58:15;;;;;;;26.60;13.03;;;5.60;99.90;;;;;;4940842;28;20200;-68
2023/12/15 05:00:42;;;;;;;29.70;13.07;;;5.50;99.90;;;;;;4943424;28;20205;-68
2023/12/15 05:03:08;;;;;;;29.20;13.77;;;5.60;99.90;;;;;;4932587;28;20204;-68
2023/12/15 05:05:35;;;;;;;29.03;14.60;;;4.90;99.90;;;;;;4915388;28;20231;-68
2023/12/15 05:08:02;;;;;;;22.73;12.07;;;5.60;99.90;;;;;;4949756;28;20259;-68
2023/12/15 05:10:29;;;;;;;33.83;14.63;;;5.60;99.90;;;;;;4948072;28;20576;-68
2023/12/15 05:12:57;;;;;;;27.87;13.50;;;5.60;99.90;;;;;;4961816;28;20705;-68
2023/12/15 05:15:24;;;;;;;33.10;14.30;;;6.40;99.90;;;;;;4945143;28;20209;-68
2023/12/15 05:17:50;;;;;;;27.77;12.47;;;5.60;99.90;;;;;;4959350;28;20212;-68
2023/12/15 05:20:18;;;;;;;28.27;13.90;;;5.60;99.90;;;;;;4931353;28;20203;-68
2023/12/15 05:22:44;;;;;;;24.20;12.23;;;5.70;99.90;;;;;;4923143;28;20363;-68
2023/12/15 05:25:11;;;;;;;29.97;13.03;;;5.70;99.90;;;;;;4960323;28;20230;-68
2023/12/15 05:27:38;;;;;;;28.17;13.90;;;5.70;99.90;;;;;;4962670;28;20199;-67
2023/12/15 05:30:08;;;;;;;27.23;12.97;;;5.70;99.90;;;;;;4945807;28;20311;-68
2023/12/15 05:32:34;;;;;;;35.07;12.83;;;5.70;99.90;;;;;;4957520;28;20223;-68
2023/12/15 05:35:01;;;;;;;30.37;13.50;;;5.70;99.90;;;;;;4942778;28;20246;-68
2023/12/15 05:37:28;;;;;;;35.00;13.50;;;5.80;99.90;;;;;;4924912;28;20251;-68
2023/12/15 05:39:55;;;;;;;33.03;13.17;;;5.70;99.90;;;;;;4941815;28;20266;-68
2023/12/15 05:42:21;;;;;;;30.07;13.90;;;5.80;99.90;;;;;;4955294;28;20200;-68
2023/12/15 05:44:48;;;;;;;30.50;13.60;;;5.80;99.90;;;;;;4934555;28;20227;-70
2023/12/15 05:47:16;;;;;;;31.77;12.93;;;5.40;99.90;;;;;;4947230;28;20208;-70
2023/12/15 05:49:43;;;;;;;33.30;13.37;;;5.80;99.90;;;;;;4949150;28;20804;-68
2023/12/15 05:52:11;;;;;;;25.80;12.50;;;6.20;99.90;;;;;;4922800;28;22896;-68
2023/12/15 05:54:39;;;;;;;29.17;13.07;;;5.80;99.90;;;;;;4952358;28;20219;-67
2023/12/15 05:57:06;;;;;;;31.60;13.57;;;;;;;;;;4951929;28;20204;-68
2023/12/15 05:59:33;;;;;;;30.67;13.10;;;5.80;99.90;;;;;;4951228;28;20208;-68
2023/12/15 06:02:00;;;;;;;31.20;13.90;;;5.80;99.90;;;;;;4933343;28;20224;-67
2023/12/15 06:04:28;;;;;;;27.23;12.73;;;5.90;99.90;;;;;;4942838;28;20219;-70
2023/12/15 06:06:55;;;;;;;28.77;12.67;;;5.90;99.90;;;;;;4911078;28;20652;-67
2023/12/15 06:09:21;;;;;;;32.07;13.73;;;5.90;99.90;;;;;;4938153;28;20969;-70
2023/12/15 06:11:49;;;;;;;30.20;12.73;;;5.90;99.90;;;;;;4963008;28;20196;-70
2023/12/15 06:14:15;;;;;;;25.43;12.77;;;5.20;99.90;;;;;;4941442;28;20252;-70
2023/12/15 06:16:42;;;;;;;30.93;12.93;;;5.60;99.90;;;;;;4947351;28;20200;-68
2023/12/15 06:19:09;;;;;;;26.63;12.43;;;3.90;99.90;;;;;;4954166;28;20222;-68
2023/12/15 06:21:37;;;;;;;15.60;7.97;;;6.10;99.90;;;;;;4941310;28;20235;-68
2023/12/15 06:24:05;;;;;;;26.10;11.57;;;6.10;99.90;;;;;;4930532;28;20593;-68
2023/12/15 06:26:31;;;;;;;27.03;12.30;;;6.20;99.90;;;;;;4952801;28;20238;-68
2023/12/15 06:28:58;;;;;;;25.23;12.70;;;7.10;99.90;;;;;;4944629;28;20215;-68
2023/12/15 06:31:25;;;;;;;29.03;12.57;;;6.10;99.90;;;;;;4947499;28;20208;-68
2023/12/15 06:33:53;;;;;;;40.03;12.20;;;6.00;99.90;;;;;;4961424;28;20618;-68
2023/12/15 06:36:20;;;;;;;22.10;11.77;;;7.30;99.90;;;;;;4946900;28;20203;-68
2023/12/15 06:38:48;;;;;;;24.87;11.83;;;6.10;99.90;;;;;;4911195;28;20208;-70
2023/12/15 06:41:15;;;;;;;27.03;12.67;;;6.70;99.90;;;;;;4956422;28;20716;-70
2023/12/15 06:43:42;;;;;;;27.53;11.40;;;6.10;99.90;;;;;;4966353;28;20202;-68
2023/12/15 06:46:10;;;;;;;20.83;11.20;;;6.30;99.90;;;;;;4954589;28;21147;-68
2023/12/15 06:48:36;;;;;;;29.70;11.00;;;6.10;99.90;;;;;;4964691;28;22026;-68
2023/12/15 06:51:05;;;;;;;29.97;11.93;;;5.40;99.90;;;;;;4963480;28;20232;-69
2023/12/15 06:53:32;;;;;;;25.67;11.33;;;6.10;99.90;;;;;;4951031;28;20200;-69
2023/12/15 06:56:00;;;;;;;30.50;11.77;;;6.10;99.90;;;;;;4908740;28;20224;-69
2023/12/15 06:58:27;;;;;;;28.87;11.60;;;6.10;99.90;;;;;;4951254;28;20204;-69
2023/12/15 07:00:54;;;;;;;22.57;11.00;;;6.20;99.90;;;;;;4952210;28;20214;-69
2023/12/15 07:03:21;;;;;;;21.43;10.80;;;6.00;99.90;;;;;;4947223;28;20207;-69
2023/12/15 07:05:47;;;;;;;24.17;10.67;;;6.10;99.90;;;;;;4960972;28;20911;-69
2023/12/15 07:08:14;;;;;;;24.37;11.60;;;6.20;99.90;;;;;;4949468;28;20207;-69
2023/12/15 07:10:41;;;;;;;23.70;10.90;;;6.20;99.90;;;;;;4927016;28;20208;-69
2023/12/15 07:13:09;;;;;;;28.53;11.13;;;6.20;99.90;;;;;;4951931;28;20208;-69
2023/12/15 07:15:36;;;;;;;32.13;11.23;;;6.20;99.90;;;;;;4960459;28;20411;-69
2023/12/15 07:18:03;;;;;;;24.57;10.30;;;6.20;99.90;;;;;;4950361;28;20229;-68
2023/12/15 07:20:29;;;;;;;27.37;10.33;;;6.20;99.90;;;;;;4962028;28;20203;-69
2023/12/15 07:22:56;;;;;;;28.70;12.70;;;6.20;99.90;;;;;;4953219;28;20206;-69
2023/12/15 07:25:25;;;;;;;23.67;10.67;;;6.20;99.90;;;;;;4906305;28;20227;-69
2023/12/15 07:27:53;;;;;;;29.73;11.03;;;6.20;99.90;;;;;;4942058;28;20277;-69
2023/12/15 07:30:21;;;;;;;30.60;11.67;;;6.20;99.90;;;;;;4944852;28;20211;-69
2023/12/15 07:32:48;;;;;;;25.43;11.13;;;6.20;99.90;;;;;;4956035;28;20283;-69
2023/12/15 07:35:15;;;;;;;29.33;11.80;;;6.30;99.90;;;;;;4947272;28;20265;-69
2023/12/15 07:37:42;;;;;;;24.43;10.87;;;6.20;99.90;;;;;;4952330;28;20318;-69
2023/12/15 07:40:10;;;;;;;26.10;11.57;;;6.30;99.90;;;;;;4947245;28;20226;-69
2023/12/15 07:42:36;;;;;;;29.70;11.17;;;6.30;99.90;;;;;;4904785;28;21148;-69
2023/12/15 07:45:04;;;;;;;23.23;10.07;;;6.30;99.90;;;;;;4963424;28;20228;-69
2023/12/15 07:47:32;;;;;;;29.30;11.10;;;6.30;99.90;;;;;;4947310;28;20203;-69
2023/12/15 07:49:58;;;;;;;26.20;10.80;;;6.30;99.90;;;;;;4950421;28;20963;-69
2023/12/15 07:52:26;;;;;;;25.60;11.20;;;6.30;99.90;;;;;;4955940;28;20655;-69
2023/12/15 07:54:52;;;;;;;24.40;11.17;;;6.50;99.90;;;;;;4934394;28;20277;-69
2023/12/15 07:57:19;;;;;;;28.83;10.50;;;6.30;99.90;;;;;;4915598;28;20220;-69
2023/12/15 07:59:46;;;;;;;26.63;11.77;;;6.30;99.90;;;;;;4947322;28;20345;-69
2023/12/15 08:02:16;;;;;;;29.37;11.47;;;6.40;99.90;;;;;;4950212;28;20211;-69
2023/12/15 08:04:44;;;;;;;26.23;10.07;;;6.30;99.90;;;;;;4945774;28;20783;-69
2023/12/15 08:07:11;;;;;;;27.87;11.83;;;6.40;99.90;;;;;;4940191;28;20224;-69
2023/12/15 08:09:38;;;;;;;29.90;11.93;;;6.30;99.90;;;;;;4964449;28;20208;-69
2023/12/15 08:12:05;;;;;;;29.33;11.70;;;6.40;99.90;;;;;;4917671;28;20203;-69
2023/12/15 08:14:32;;;;;;;27.93;11.60;;;6.40;99.90;;;;;;4940633;28;20210;-69
2023/12/15 08:16:59;;;;;;;25.00;11.23;;;6.40;99.90;;;;;;4949906;28;20228;-69
2023/12/15 08:19:26;;;;;;;30.63;11.53;;;6.50;99.90;;;;;;4944038;28;20199;-69
2023/12/15 08:21:54;;;;;;;24.13;11.40;;;6.40;99.90;;;;;;4947576;28;20216;-69
2023/12/15 08:24:21;;;;;;;23.63;10.67;;;6.50;99.90;;;;;;4954302;28;20454;-69
2023/12/15 08:26:47;;;;;;;24.97;10.87;;;6.40;99.90;;;;;;4949476;28;20230;-69
2023/12/15 08:29:14;;;;;;;31.50;10.73;;;3.90;99.90;;;;;;4911269;28;20203;-69
2023/12/15 08:31:41;;;;;;;24.83;11.13;;;6.50;99.90;;;;;;4959467;28;20215;-69
2023/12/15 08:34:08;;;;;;;23.33;10.47;;;7.40;99.90;;;;;;4953957;28;20211;-69
2023/12/15 08:36:34;;;;;;;31.10;10.77;;;6.50;99.90;;;;;;4927698;28;20203;-69
2023/12/15 08:39:03;;;;;;;19.83;10.40;;;6.50;99.90;;;;;;4949400;28;21388;-69
2023/12/15 08:41:29;;;;;;;24.73;9.80;;;6.70;99.90;;;;;;4943458;28;20199;-69
2023/12/15 08:43:56;;;;;;;25.97;9.73;;;6.60;99.90;;;;;;4923991;28;20203;-69
2023/12/15 08:46:24;;;;;;;27.43;10.67;;;7.30;99.90;;;;;;4950855;28;21217;-69
2023/12/15 08:48:51;;;;;;;26.23;10.90;;;6.60;99.90;;;;;;4955552;28;20204;-69
2023/12/15 08:51:18;;;;;;;23.80;9.70;;;9.50;99.90;;;;;;4938981;28;20242;-69
2023/12/15 08:53:45;;;;;;;21.47;10.07;;;;;;;;;;4952280;28;20207;-69
2023/12/15 08:56:13;;;;;;;24.37;9.90;;;6.70;99.90;;;;;;4954026;28;20220;-68
2023/12/15 08:58:40;;;;;;;26.77;10.23;;;6.70;99.90;;;;;;4919014;28;20227;-68
2023/12/15 09:01:07;;;;;;;26.37;9.77;;;;;;;;;;4951614;28;20203;-68
2023/12/15 09:03:36;;;;;;;23.13;9.30;;;6.70;99.90;;;;;;4956420;28;20211;-69
2023/12/15 09:06:03;;;;;;;20.97;10.03;;;6.20;99.90;;;;;;4942996;28;20232;-69
2023/12/15 09:08:30;;;;;;;19.20;8.67;;;6.80;99.90;;;;;;4960980;28;20766;-69
2023/12/15 09:10:57;;;;;;;23.43;9.73;;;;;;;;;;4958686;28;20200;-69
2023/12/15 09:13:24;;;;;;;23.27;9.17;;;6.80;99.90;;;;;;4950850;28;20204;-69
2023/12/15 09:15:51;;;;;;;21.83;9.63;;;6.90;99.90;;;;;;4926923;28;20215;-69
2023/12/15 09:18:18;;;;;;;32.17;9.00;;;6.90;99.90;;;;;;4965768;28;20199;-69
2023/12/15 09:20:45;;;;;;;22.00;8.80;;;6.90;99.90;;;;;;4964247;28;20204;-69
2023/12/15 09:23:11;;;;;;;18.70;8.27;;;7.00;99.90;;;;;;4949969;28;20206;-69
2023/12/15 09:25:38;;;;;;;33.00;8.73;;;7.00;99.90;;;;;;4959362;28;20227;-69
2023/12/15 09:28:05;;;;;;;17.67;7.20;;;7.00;99.90;;;;;;4953832;28;20760;-69
2023/12/15 09:30:33;;;;;;;25.67;8.17;;;7.00;99.90;;;;;;4927509;28;20216;-69
2023/12/15 09:33:00;;;;;;;31.50;9.17;;;7.00;99.90;;;;;;4966052;28;20207;-69
2023/12/15 09:35:27;;;;;;;21.13;8.97;;;7.00;99.90;;;;;;4961145;28;20206;-69
2023/12/15 09:37:54;;;;;;;22.63;9.20;;;7.00;99.90;;;;;;4946854;28;20208;-69
2023/12/15 09:40:23;;;;;;;16.70;8.27;;;7.00;99.90;;;;;;4962842;28;20207;-69
2023/12/15 09:42:50;;;;;;;23.37;8.50;;;7.00;99.90;;;;;;4959796;28;20214;-69
2023/12/15 09:45:17;;;;;;;21.17;7.90;;;;;;;;;;4934664;28;20211;-69
2023/12/15 09:47:47;;;;;;;19.07;7.70;;;7.10;99.90;;;;;;4948605;28;20215;-69
2023/12/15 09:50:16;;;;;;;16.60;7.90;;;7.10;99.90;;;;;;4962313;28;20235;-69
2023/12/15 09:52:43;;;;;;;16.70;7.70;;;7.10;99.90;;;;;;4950563;28;21090;-69
2023/12/15 09:55:10;;;;;;;21.93;7.77;;;7.10;99.90;;;;;;4965930;28;20203;-69
2023/12/15 09:57:39;;;;;;;19.33;7.80;;;7.10;99.90;;;;;;4958036;28;20207;-69
2023/12/15 10:00:09;;;;;;;23.10;7.33;;;7.20;99.90;;;;;;4954097;28;20242;-69
2023/12/15 10:02:36;;;;;;;22.23;7.40;;;7.20;99.90;;;;;;4923655;28;20208;-69
2023/12/15 10:05:05;;;;;;;23.33;7.70;;;7.20;99.90;;;;;;4964675;28;20211;-69
2023/12/15 10:07:32;;;;;;;17.53;7.30;;;6.80;99.90;;;;;;4948063;28;20311;-69
2023/12/15 10:09:59;;;;;;;20.37;7.13;;;7.20;99.90;;;;;;4954343;28;20219;-69
2023/12/15 10:12:27;;;;;;;20.20;7.43;;;7.20;99.90;;;;;;4962803;28;20214;-69
2023/12/15 10:14:54;;;;;;;28.07;7.80;;;7.20;99.90;;;;;;4958848;28;20341;-69
2023/12/15 10:17:21;;;;;;;19.37;6.90;;;7.30;99.90;;;;;;4942902;28;20226;-69
2023/12/15 10:19:47;;;;;;;23.67;8.20;;;7.20;99.90;;;;;;4957386;28;20231;-69
2023/12/15 10:22:16;;;;;;;15.47;6.63;;;11.40;99.90;;;;;;4949631;28;20206;-69
2023/12/15 10:24:43;;;;;;;22.63;7.93;;;7.30;99.90;;;;;;4953944;28;20212;-69
2023/12/15 10:27:13;;;;;;;20.80;7.03;;;7.30;99.90;;;;;;4961571;28;20228;-69
2023/12/15 10:29:40;;;;;;;17.07;6.40;;;7.30;99.90;;;;;;4965538;28;20674;-69
2023/12/15 10:32:07;;;;;;;18.27;6.43;;;6.50;99.90;;;;;;4957758;28;20222;-69
2023/12/15 10:34:34;;;;;;;15.33;6.10;;;7.30;99.90;;;;;;4926075;28;20213;-69
2023/12/15 10:37:02;;;;;;;13.47;6.27;;;7.30;99.90;;;;;;4943078;28;20817;-69
2023/12/15 10:39:30;;;;;;;18.47;6.43;;;7.10;99.90;;;;;;4963315;28;20206;-69
2023/12/15 10:41:59;;;;;;;22.90;7.17;;;7.20;99.90;;;;;;4940023;28;20278;-69
2023/12/15 10:44:27;;;;;;;24.83;7.60;;;7.40;99.90;;;;;;4963490;28;20226;-69
2023/12/15 10:46:54;;;;;;;21.60;6.77;;;7.40;99.90;;;;;;4940683;28;20231;-69
2023/12/15 10:49:21;;;;;;;17.87;6.43;;;7.40;99.90;;;;;;4927591;28;20223;-69
2023/12/15 10:51:48;;;;;;;18.33;6.90;;;7.60;99.90;;;;;;4963423;28;20200;-69
2023/12/15 10:54:17;;;;;;;19.20;5.93;;;7.10;99.90;;;;;;4963252;28;20199;-69
2023/12/15 10:56:47;;;;;;;19.07;6.40;;;6.50;99.90;;;;;;4954957;28;20306;-69
2023/12/15 10:59:15;;;;;;;15.43;5.43;;;7.40;99.90;;;;;;4952878;28;20342;-69
2023/12/15 11:01:46;;;;;;;27.47;6.60;;;7.70;99.90;;;;;;4945978;28;20237;-69
2023/12/15 11:04:22;;;;;;;16.38;6.18;;;8.10;99.90;;;;;;4923759;28;21056;-69
2023/12/15 11:06:50;;;;;;;25.27;6.70;;;7.80;99.90;;;;;;4921690;28;20238;-68
2023/12/15 11:09:28;;;;;;;22.70;6.47;;;7.80;99.90;;;;;;4958438;28;20205;-69
2023/12/15 11:12:22;;;;;;;26.27;6.30;;;7.70;99.90;;;;;;4945527;28;20822;-69
2023/12/15 11:14:53;;;;;;;18.00;5.65;;;7.60;99.90;;;;;;4955757;28;20238;-69
2023/12/15 11:17:20;;;;;;;17.30;5.50;;;7.60;99.90;;;;;;4942719;28;20231;-69
2023/12/15 11:19:50;;;;;;;22.77;6.00;;;7.60;99.90;;;;;;4957094;28;20233;-69
2023/12/15 11:22:18;;;;;;;22.43;6.00;;;7.70;99.90;;;;;;4916192;28;20233;-69
2023/12/15 11:24:45;;;;;;;27.40;5.27;;;;;;;;;;4960433;28;20254;-69
2023/12/15 11:27:13;;;;;;;138.70;21.43;;;8.00;99.90;;;;;;4944424;28;20257;-69
2023/12/15 11:29:41;;;;;;;642.93;67.43;;;7.70;99.90;;;;;;4960058;28;20194;-68
2023/12/15 11:32:29;;;;;;;105.63;15.67;;;7.80;99.90;;;;;;4944234;28;20230;-69
2023/12/15 11:34:57;;;;;;;32.50;6.97;;;7.80;99.90;;;;;;4927951;28;20230;-69
2023/12/15 11:37:25;;;;;;;28.50;6.67;;;7.90;99.90;;;;;;4926593;28;20326;-69
2023/12/15 11:39:53;;;;;;;18.10;5.30;;;7.80;99.90;;;;;;4953863;28;20200;-69
2023/12/15 11:42:20;;;;;;;19.90;5.90;;;7.80;99.90;;;;;;4953392;28;20203;-69
2023/12/15 11:44:48;;;;;;;29.10;5.10;;;7.90;99.90;;;;;;4960335;28;20210;-69
2023/12/15 11:47:15;;;;;;;24.53;6.13;;;7.90;99.90;;;;;;4947617;28;20250;-69
2023/12/15 11:49:43;;;;;;;23.67;5.43;;;8.10;99.90;;;;;;4947194;28;20228;-69
2023/12/15 11:52:11;;;;;;;27.58;6.45;;;8.10;99.90;;;;;;4958223;28;20212;-69
2023/12/15 11:54:38;;;;;;;26.20;6.10;;;8.00;99.90;;;;;;4915291;28;20375;-69
2023/12/15 11:57:06;;;;;;;16.92;5.28;;;7.80;99.90;;;;;;4959706;28;20208;-69
2023/12/15 11:59:36;;;;;;;27.70;5.23;;;8.00;99.90;;;;;;4952588;28;20509;-69
2023/12/15 12:02:06;;;;;;;22.60;5.70;;;8.00;99.90;;;;;;4945691;28;20204;-69
2023/12/15 12:04:33;;;;;;;22.88;5.13;;;8.00;99.90;;;;;;4914823;28;21235;-69
2023/12/15 12:07:00;;;;;;;20.48;5.72;;;8.00;99.90;;;;;;4922721;28;20736;-69
2023/12/15 12:09:27;;;;;;;24.13;6.85;;;8.00;99.90;;;;;;4905504;28;20215;-69
2023/12/15 12:11:56;;;;;;;20.52;6.03;;;7.20;99.90;;;;;;4941446;28;20228;-69
2023/12/15 12:14:24;;;;;;;18.98;5.47;;;8.00;99.90;;;;;;4943961;23;20247;-68
2023/12/15 12:16:53;;;;;;;22.13;6.03;;;8.10;99.90;;;;;;4919850;28;20238;-69
2023/12/15 12:19:22;;;;;;;30.45;7.15;;;8.10;99.90;;;;;;4926857;28;20204;-69
2023/12/15 12:21:53;;;;;;;16.95;5.70;;;8.10;99.90;;;;;;4928999;28;20915;-69
2023/12/15 12:24:21;;;;;;;19.80;7.20;;;;;;;;;;4881822;28;21164;-69
2023/12/15 12:26:50;;;;;;;19.02;5.55;;;8.00;99.90;;;;;;4935296;28;20227;-69
2023/12/15 12:29:17;;;;;;;25.48;6.15;;;8.00;99.90;;;;;;4910703;28;20435;-69
2023/12/15 12:31:45;;;;;;;15.13;6.20;;;8.00;99.90;;;;;;4932805;28;20674;-69
2023/12/15 12:34:12;;;;;;;19.42;5.70;;;;;;;;;;4908454;28;20383;-69
2023/12/15 12:36:40;;;;;;;34.63;5.72;;;8.10;99.90;;;;;;4925856;28;20228;-69
2023/12/15 12:39:07;;;;;;;15.20;4.80;;;8.30;99.90;;;;;;4904924;28;20247;-69
2023/12/15 12:41:34;;;;;;;22.00;5.03;;;8.50;99.90;;;;;;4897552;28;20212;-69
2023/12/15 12:44:00;;;;;;;14.57;4.90;;;8.20;99.90;;;;;;4904867;28;20446;-69